Time;durP1;ratioP1;P1;durP2;ratioP2;P2;SDS_P1;SDS_P2;PMS_P1;PMS_P2;Temp;Humidity;BMP_temperature;BMP_pressure;BME280_temperature;BME280_humidity;BME280_pressure;Samples;Min_cycle;Max_cycle;Signal;HPM_P1;HPM_P2
2023/06/07 00:01:52;;;;;;;2.45;2.25;;;;;;;17.25;70.74;63783.63;5082019;28;20508;-79
2023/06/07 00:04:19;;;;;;;4.10;2.70;;;;;;;17.28;70.22;63789.84;5087129;28;20481;-78
2023/06/07 00:06:46;;;;;;;4.63;3.05;;;;;;;17.27;70.37;63788.78;5089568;28;20254;-77
2023/06/07 00:09:13;;;;;;;3.22;2.83;;;;;;;17.20;70.66;63781.00;5084512;28;20201;-78
2023/06/07 00:11:40;;;;;;;2.72;2.53;;;;;;;17.19;71.04;63777.91;5069726;28;20223;-79
2023/06/07 00:14:07;;;;;;;4.35;2.83;;;;;;;17.21;71.16;63779.44;5072855;28;20257;-79
2023/06/07 00:16:36;;;;;;;3.70;2.80;;;;;;;17.18;70.82;63779.44;5076295;28;20224;-79
2023/06/07 00:19:03;;;;;;;6.15;2.88;;;;;;;17.19;71.19;63777.91;5084105;28;20254;-79
2023/06/07 00:21:30;;;;;;;3.78;3.08;;;;;;;17.20;71.12;63778.94;5098383;28;20471;-78
2023/06/07 00:23:57;;;;;;;2.53;2.33;;;;;;;17.12;71.25;63770.59;5108250;28;20283;-78
2023/06/07 00:26:24;;;;;;;3.38;2.67;;;;;;;17.10;72.06;63768.53;5102218;28;20253;-77
2023/06/07 00:28:51;;;;;;;3.00;2.60;;;;;;;17.05;71.61;63763.31;5088579;28;20207;-79
2023/06/07 00:31:18;;;;;;;3.20;2.42;;;;;;;17.01;72.38;63754.03;5088283;28;20444;-79
2023/06/07 00:33:48;;;;;;;3.03;2.75;;;;;;;16.97;72.39;63757.56;5089533;28;20211;-78
2023/06/07 00:36:15;;;;;;;4.20;3.05;;;;;;;16.94;72.85;63751.88;5087392;28;20204;-78
2023/06/07 00:38:42;;;;;;;6.05;2.38;;;;;;;16.92;72.54;63744.13;5078547;28;20303;-79
2023/06/07 00:41:09;;;;;;;3.53;3.05;;;;;;;16.81;73.38;63740.38;5069137;28;20272;-79
2023/06/07 00:43:36;;;;;;;3.13;2.80;;;;;;;16.83;74.07;63740.44;5069345;28;20231;-77
2023/06/07 00:46:06;;;;;;;3.63;2.35;;;;;;;16.82;74.60;63741.97;5077097;28;20208;-79
2023/06/07 00:48:33;;;;;;;4.22;2.92;;;;;;;16.76;74.62;63735.19;5073118;28;20285;-78
2023/06/07 00:51:02;;;;;;;2.63;2.42;;;;;;;16.75;74.34;63734.69;5084712;28;20532;-78
2023/06/07 00:53:30;;;;;;;6.80;2.88;;;;;;;16.72;74.34;63728.97;5083799;28;20227;-79
2023/06/07 00:55:57;;;;;;;2.70;2.60;;;;;;;16.74;74.10;63736.19;5087388;28;20192;-78
2023/06/07 00:58:26;;;;;;;3.47;2.67;;;;;;;16.69;74.59;63725.31;5088092;28;20283;-78
2023/06/07 01:00:53;;;;;;;2.63;2.42;;;;;;;16.69;74.60;63725.84;5078333;28;20196;-79
2023/06/07 01:03:21;;;;;;;3.83;2.25;;;;;;;16.66;74.71;63722.22;5078620;28;20206;-78
2023/06/07 01:05:50;;;;;;;5.20;2.58;;;;;;;16.60;75.20;63716.50;5088841;28;20200;-78
2023/06/07 01:08:20;;;;;;;2.83;2.63;;;;;;;16.56;74.73;63717.47;5087335;28;20277;-78
2023/06/07 01:10:48;;;;;;;3.10;2.60;;;;;;;16.39;75.83;63697.19;5082550;28;20200;-78
2023/06/07 01:13:17;;;;;;;2.20;2.10;;;;;;;16.47;75.62;63702.97;5084841;28;20230;-78
2023/06/07 01:15:45;;;;;;;3.90;2.45;;;;;;;16.37;75.33;63692.53;5085832;28;20192;-78
2023/06/07 01:18:12;;;;;;;3.55;2.70;;;;;;;16.38;75.75;63698.19;5070804;28;20235;-77
2023/06/07 01:20:44;;;;;;;4.65;2.70;;;;;;;16.41;75.05;63688.47;5073019;28;20207;-79
2023/06/07 01:23:12;;;;;;;5.43;3.15;;;;;;;16.40;74.50;63695.66;5086635;28;20216;-78
2023/06/07 01:25:41;;;;;;;2.40;2.30;;;;;;;16.40;74.24;63697.72;5087645;28;20450;-80
2023/06/07 01:28:08;;;;;;;3.13;2.70;;;;;;;16.35;74.87;63684.78;5087446;28;20247;-78
2023/06/07 01:30:36;;;;;;;2.70;2.50;;;;;;;16.32;76.20;63689.91;5087742;28;20253;-78
2023/06/07 01:33:06;;;;;;;2.83;2.58;;;;;;;16.21;76.90;63678.47;5087136;28;20305;-78
2023/06/07 01:35:34;;;;;;;6.22;2.75;;;;;;;16.11;79.91;63657.78;5088249;28;20189;-79
2023/06/07 01:38:02;;;;;;;3.60;2.60;;;;;;;16.06;80.74;63660.81;5076842;28;20259;-77
2023/06/07 01:40:30;;;;;;;3.03;2.63;;;;;;;16.09;81.39;63663.94;5085216;28;20222;-78
2023/06/07 01:43:00;;;;;;;4.03;2.50;;;;;;;16.12;81.33;63667.06;5081087;28;20219;-79
2023/06/07 01:45:27;;;;;;;4.32;3.17;;;;;;;16.13;81.31;63668.09;5070075;28;20203;-79
2023/06/07 01:47:54;;;;;;;2.05;1.95;;;;;;;16.22;80.93;63676.44;5070562;28;20220;-78
2023/06/07 01:50:22;;;;;;;2.58;2.38;;;;;;;16.23;79.98;63674.88;5075364;28;20283;-78
2023/06/07 01:52:49;;;;;;;2.95;2.75;;;;;;;16.10;80.07;63667.53;5067987;28;20227;-78
2023/06/07 01:55:17;;;;;;;2.97;2.55;;;;;;;15.98;82.15;63652.50;5074536;28;20196;-78
2023/06/07 01:57:57;;;;;;;4.85;2.97;;;;;;;15.82;82.07;63635.88;5082779;28;20239;-79
2023/06/07 02:00:29;;;;;;;2.78;2.60;;;;;;;15.88;81.69;63642.09;5081462;28;20199;-79
2023/06/07 02:03:00;;;;;;;2.60;2.40;;;;;;;15.88;81.32;63644.13;5066176;28;20240;-78
2023/06/07 02:05:33;;;;;;;2.80;2.47;;;;;;;15.93;81.05;63649.34;5067523;28;20195;-80
2023/06/07 02:08:04;;;;;;;2.97;2.53;;;;;;;15.96;80.78;63649.91;5081287;28;20220;-78
2023/06/07 02:10:33;;;;;;;3.20;2.90;;;;;;;15.87;80.95;63635.94;5086006;28;20386;-79
2023/06/07 02:13:01;;;;;;;2.67;2.47;;;;;;;15.93;80.98;63646.78;5084813;28;20520;-79
2023/06/07 02:15:30;;;;;;;5.10;2.50;;;;;;;15.96;80.03;63647.34;5068565;28;20216;-79
2023/06/07 02:18:01;;;;;;;4.05;2.50;;;;;;;15.96;79.69;63647.84;5083604;28;20236;-77
2023/06/07 02:20:29;;;;;;;2.75;2.55;;;;;;;15.87;79.85;63641.06;5086888;28;20268;-78
2023/06/07 02:22:57;;;;;;;2.60;2.42;;;;;;;15.64;80.68;63614.59;5086952;28;20225;-77
2023/06/07 02:25:25;;;;;;;6.50;2.72;;;;;;;15.71;80.65;63618.75;5084292;28;20200;-79
2023/06/07 02:27:52;;;;;;;2.80;2.60;;;;;;;15.73;81.16;63623.94;5064722;28;20564;-78
2023/06/07 02:30:19;;;;;;;3.38;2.30;;;;;;;15.70;81.84;63622.88;5078937;28;20228;-79
2023/06/07 02:32:48;;;;;;;3.28;2.95;;;;;;;15.68;81.68;63625.91;5086004;28;20223;-78
2023/06/07 02:35:17;;;;;;;2.60;2.40;;;;;;;15.72;81.79;63625.47;5082984;28;20200;-77
2023/06/07 02:37:47;;;;;;;4.47;2.65;;;;;;;15.61;82.40;63614.03;5086906;28;20212;-79
2023/06/07 02:40:15;;;;;;;2.80;2.58;;;;;;;15.62;82.69;63617.09;5075846;28;20197;-79
2023/06/07 02:42:45;;;;;;;2.80;2.58;;;;;;;15.58;84.18;63608.34;5066139;28;20404;-79
2023/06/07 02:45:13;;;;;;;3.88;2.60;;;;;;;15.66;84.00;63616.13;5084393;28;20240;-78
2023/06/07 02:47:40;;;;;;;2.63;2.42;;;;;;;15.62;83.33;63609.41;5078422;28;20224;-78
2023/06/07 02:50:09;;;;;;;2.33;2.22;;;;;;;15.65;82.15;63615.09;5066463;28;20209;-78
2023/06/07 02:52:36;;;;;;;2.60;2.50;;;;;;;15.62;82.19;63617.09;5073248;28;20236;-78
2023/06/07 02:55:04;;;;;;;3.75;2.63;;;;;;;15.58;81.23;63605.25;5064878;28;20254;-80
2023/06/07 02:57:31;;;;;;;5.45;2.50;;;;;;;15.64;81.57;63619.19;5064936;28;20299;-80
2023/06/07 02:59:59;;;;;;;3.08;2.60;;;;;;;15.58;81.62;63610.41;5072000;28;20224;-77
2023/06/07 03:02:26;;;;;;;2.35;2.03;;;;;;;15.60;81.69;63615.56;5077107;28;20283;-78
2023/06/07 03:04:55;;;;;;;2.85;2.58;;;;;;;15.45;83.61;63594.31;5066940;28;20501;-79
2023/06/07 03:07:24;;;;;;;5.03;3.03;;;;;;;15.35;83.26;63584.41;5067159;28;20254;-78
2023/06/07 03:09:51;;;;;;;3.45;3.17;;;;;;;15.35;83.89;63586.47;5069481;28;20220;-79
2023/06/07 03:12:18;;;;;;;4.53;3.75;;;;;;;15.41;84.55;63590.16;5084663;28;20216;-78
2023/06/07 03:14:45;;;;;;;4.68;3.33;;;;;;;15.35;85.98;63584.41;5084943;28;20228;-77
2023/06/07 03:17:12;;;;;;;2.65;2.50;;;;;;;15.36;85.98;63590.06;5080157;28;20221;-78
2023/06/07 03:19:39;;;;;;;2.70;2.50;;;;;;;15.39;86.48;63588.59;5072634;28;20232;-78
2023/06/07 03:22:06;;;;;;;3.15;2.88;;;;;;;15.33;86.88;63584.38;5083818;28;20217;-78
2023/06/07 03:24:36;;;;;;;2.55;2.35;;;;;;;15.40;85.98;63586.53;5068193;28;20201;-79
2023/06/07 03:27:03;;;;;;;3.28;2.80;;;;;;;15.41;86.77;63595.28;5067876;28;20220;-79
2023/06/07 03:29:30;;;;;;;3.90;2.90;;;;;;;15.51;85.51;63600.56;5075293;28;20211;-80
2023/06/07 03:31:57;;;;;;;2.80;2.60;;;;;;;15.64;84.33;63614.06;5084447;28;20239;-78
2023/06/07 03:34:26;;;;;;;3.58;3.28;;;;;;;15.70;83.92;63625.94;5082349;28;20196;-79
2023/06/07 03:36:54;;;;;;;4.22;2.88;;;;;;;15.72;84.75;63622.38;5068554;28;20216;-78
2023/06/07 03:39:21;;;;;;;5.50;3.15;;;;;;;15.83;85.08;63638.94;5084451;28;20238;-79
2023/06/07 03:41:50;;;;;;;2.70;2.40;;;;;;;15.84;85.90;63634.88;5084836;28;20239;-81
2023/06/07 03:44:17;;;;;;;3.42;2.95;;;;;;;15.76;86.81;63626.53;5067033;28;20250;-78
2023/06/07 03:46:44;;;;;;;3.58;2.40;;;;;;;15.69;87.26;63621.81;5071130;28;20220;-78
2023/06/07 03:49:11;;;;;;;4.10;2.90;;;;;;;15.64;87.52;63616.63;5084574;28;20589;-77
2023/06/07 03:51:39;;;;;;;3.00;2.80;;;;;;;15.36;90.72;63584.94;5090016;28;20292;-78
2023/06/07 03:54:06;;;;;;;6.68;3.13;;;;;;;15.17;96.56;63565.19;5085347;28;20241;-79
2023/06/07 03:56:32;;;;;;;8.05;3.10;;;;;;;15.16;100.00;63561.56;5080354;28;20215;-78
2023/06/07 03:59:01;;;;;;;3.50;3.20;;;;;;;15.38;100.00;63590.09;5079540;28;20403;-78
2023/06/07 04:01:28;;;;;;;3.20;2.78;;;;;;;15.50;96.86;63597.47;5084533;28;20243;-79
2023/06/07 04:03:55;;;;;;;2.97;2.75;;;;;;;15.70;93.17;63620.81;5078965;28;20200;-78
2023/06/07 04:06:24;;;;;;;2.88;2.67;;;;;;;15.77;90.93;63633.22;5092843;28;20242;-78
2023/06/07 04:08:53;;;;;;;4.03;2.60;;;;;;;15.94;87.48;63648.34;5104872;28;20214;-77
2023/06/07 04:11:20;;;;;;;5.13;2.53;;;;;;;16.17;85.06;63672.25;5102459;28;20264;-77
2023/06/07 04:13:47;;;;;;;4.10;3.38;;;;;;;16.35;83.46;63687.91;5072529;28;20211;-77
2023/06/07 04:16:15;;;;;;;5.63;3.08;;;;;;;16.40;83.15;63697.72;5075631;28;20540;-78
2023/06/07 04:18:42;;;;;;;3.85;2.70;;;;;;;16.37;83.05;63694.59;5066516;28;20225;-77
2023/06/07 04:21:10;;;;;;;2.83;2.70;;;;;;;16.46;82.22;63694.22;5073491;28;20201;-79
2023/06/07 04:23:36;;;;;;;5.30;2.83;;;;;;;16.79;81.28;63736.25;5078439;28;20208;-80
2023/06/07 04:26:06;;;;;;;3.83;2.45;;;;;;;17.00;79.81;63755.53;5078610;28;20564;-79
2023/06/07 04:28:32;;;;;;;3.13;2.83;;;;;;;17.30;78.82;63783.69;5074472;28;20268;-78
2023/06/07 04:30:59;;;;;;;6.65;3.15;;;;;;;17.52;76.96;63809.19;5073273;28;20391;-79
2023/06/07 04:33:28;;;;;;;2.60;2.40;;;;;;;17.76;74.44;63833.63;5079515;28;20323;-78
2023/06/07 04:35:57;;;;;;;2.75;2.55;;;;;;;17.90;72.49;63848.22;5065440;28;20197;-77
2023/06/07 04:38:25;;;;;;;3.20;2.65;;;;;;;17.96;72.81;63854.47;5075352;28;20204;-78
2023/06/07 04:40:53;;;;;;;4.63;3.00;;;;;;;18.22;71.93;63882.06;5072301;28;20255;-80
2023/06/07 04:43:20;;;;;;;3.88;2.58;;;;;;;18.23;72.05;63880.03;5064221;28;20530;-78
2023/06/07 04:45:53;;;;;;;2.90;2.70;;;;;;;18.49;70.29;63912.28;5069043;28;20346;-77
2023/06/07 04:48:22;;;;;;;2.47;2.28;;;;;;;18.69;69.93;63933.13;5067004;28;20250;-79
2023/06/07 04:50:51;;;;;;;3.75;2.17;;;;;;;18.95;67.40;63957.66;5078950;28;20263;-78
2023/06/07 04:53:19;;;;;;;3.05;2.75;;;;;;;19.08;66.42;63971.22;5081260;28;20211;-78
2023/06/07 04:55:47;;;;;;;2.65;2.42;;;;;;;19.00;66.49;63962.88;5087114;28;20200;-77
2023/06/07 04:58:15;;;;;;;2.58;2.35;;;;;;;18.94;67.05;63953.50;5085916;28;20219;-79
2023/06/07 05:00:42;;;;;;;5.00;2.90;;;;;;;19.31;66.91;63995.22;5081939;28;20854;-79
2023/06/07 05:03:13;;;;;;;3.75;2.45;;;;;;;19.64;64.57;64033.75;5089943;28;20277;-79
2023/06/07 05:05:41;;;;;;;5.80;2.80;;;;;;;19.80;63.58;64047.84;5087690;28;20218;-80
2023/06/07 05:08:09;;;;;;;4.07;2.58;;;;;;;19.83;63.93;64051.50;5078986;28;20501;-79
2023/06/07 05:10:36;;;;;;;2.83;2.47;;;;;;;20.04;63.68;64078.59;5065290;28;20397;-79
2023/06/07 05:13:04;;;;;;;5.25;2.90;;;;;;;20.23;62.92;64095.31;5085733;28;20219;-79
2023/06/07 05:15:31;;;;;;;3.47;2.10;;;;;;;20.34;61.35;64106.81;5088121;28;20291;-77
2023/06/07 05:17:59;;;;;;;2.97;2.78;;;;;;;20.36;60.53;64109.41;5085223;28;20216;-78
2023/06/07 05:20:27;;;;;;;3.35;2.83;;;;;;;20.14;60.62;64081.25;5080472;28;20220;-78
2023/06/07 05:22:54;;;;;;;2.55;2.35;;;;;;;20.11;61.97;64077.63;5069288;28;20217;-79
2023/06/07 05:25:22;;;;;;;3.15;2.30;;;;;;;20.02;62.33;64068.75;5087752;28;20373;-80
2023/06/07 05:27:49;;;;;;;2.85;2.67;;;;;;;19.95;63.27;64063.53;5075469;28;20223;-78
2023/06/07 05:30:17;;;;;;;2.60;2.40;;;;;;;20.06;62.15;64072.94;5084395;28;20204;-79
2023/06/07 05:32:44;;;;;;;4.25;2.58;;;;;;;20.20;62.40;64084.97;5086253;28;20532;-78
2023/06/07 05:35:12;;;;;;;2.97;2.47;;;;;;;20.38;62.03;64114.09;5089179;28;20203;-79
2023/06/07 05:37:39;;;;;;;2.85;2.65;;;;;;;20.60;60.74;64131.38;5088930;28;20224;-78
2023/06/07 05:40:08;;;;;;;2.38;2.22;;;;;;;20.65;60.63;64134.00;5087699;28;20228;-78
2023/06/07 05:42:38;;;;;;;3.63;2.45;;;;;;;20.65;60.47;64139.69;5088174;28;20235;-78
2023/06/07 05:45:07;;;;;;;2.63;2.33;;;;;;;20.26;63.12;64101.56;5081209;28;20206;-78
2023/06/07 05:47:34;;;;;;;6.60;2.63;;;;;;;20.40;62.16;64110.47;5086062;28;20216;-79
2023/06/07 05:50:01;;;;;;;3.05;2.80;;;;;;;20.50;61.60;64124.03;5086200;28;20419;-79
2023/06/07 05:52:28;;;;;;;5.40;3.10;;;;;;;20.64;62.54;64132.94;5086761;28;20227;-78
2023/06/07 05:54:57;;;;;;;7.20;2.38;;;;;;;20.30;61.46;64100.03;5086748;28;20233;-78
2023/06/07 05:57:24;;;;;;;2.72;2.53;;;;;;;20.14;61.14;64083.84;5070694;28;20228;-78
2023/06/07 05:59:53;;;;;;;4.32;2.50;;;;;;;20.09;62.76;64072.94;5087480;28;20419;-78
2023/06/07 06:02:20;;;;;;;3.63;3.30;;;;;;;20.20;61.79;64092.19;5067873;28;20220;-77
2023/06/07 06:04:47;;;;;;;3.97;2.88;;;;;;;20.20;61.13;64087.56;5067017;28;20197;-77
2023/06/07 06:07:13;;;;;;;2.95;2.67;;;;;;;20.24;61.29;64091.72;5067518;28;20398;-78
2023/06/07 06:09:41;;;;;;;4.15;2.90;;;;;;;20.00;61.85;64071.31;5067331;28;20189;-76
2023/06/07 06:12:09;;;;;;;3.28;2.88;;;;;;;19.71;62.84;64033.31;5065757;28;20402;-76
2023/06/07 06:14:37;;;;;;;3.15;2.95;;;;;;;19.60;62.01;64027.53;5068620;28;20277;-77
2023/06/07 06:17:06;;;;;;;3.95;2.97;;;;;;;19.46;63.60;64010.34;5071603;28;20266;-77
2023/06/07 06:19:33;;;;;;;2.88;2.67;;;;;;;19.79;63.84;64049.41;5088424;28;20525;-78
2023/06/07 06:22:00;;;;;;;3.05;2.50;;;;;;;20.00;61.94;64071.81;5086640;28;20216;-77
2023/06/07 06:24:27;;;;;;;6.70;3.15;;;;;;;19.99;63.54;64065.09;5085799;28;20200;-78
2023/06/07 06:26:53;;;;;;;3.72;2.90;;;;;;;20.22;62.05;64089.66;5076419;28;20220;-77
2023/06/07 06:29:21;;;;;;;3.00;2.80;;;;;;;20.07;63.28;64073.97;5072176;28;20196;-77
2023/06/07 06:31:48;;;;;;;6.38;3.00;;;;;;;20.26;61.23;64098.47;5090561;28;20283;-76
2023/06/07 06:34:18;;;;;;;5.13;2.78;;;;;;;20.14;61.93;64083.34;5086259;28;20224;-78
2023/06/07 06:36:46;;;;;;;5.50;2.85;;;;;;;19.61;64.31;64025.97;5085072;28;20208;-77
2023/06/07 06:39:14;;;;;;;3.15;2.85;;;;;;;19.81;65.77;64046.84;5086326;28;20200;-78
2023/06/07 06:41:41;;;;;;;8.95;3.25;;;;;;;20.26;66.34;64095.88;5072091;28;20567;-77
2023/06/07 06:44:08;;;;;;;3.10;2.47;;;;;;;20.71;60.97;64145.44;5066492;28;20223;-77
2023/06/07 06:46:36;;;;;;;3.30;2.80;;;;;;;20.86;59.55;64163.16;5067754;28;20223;-78
2023/06/07 06:49:04;;;;;;;3.80;3.03;;;;;;;20.96;59.04;64168.44;5068997;28;20203;-77
2023/06/07 06:51:32;;;;;;;4.55;2.70;;;;;;;20.80;60.34;64154.31;5085500;28;20235;-77
2023/06/07 06:53:59;;;;;;;3.40;2.47;;;;;;;21.06;61.36;64178.88;5085571;28;20377;-78
2023/06/07 06:56:27;;;;;;;3.20;2.88;;;;;;;20.61;61.73;64132.94;5075432;28;20236;-77
2023/06/07 06:58:54;;;;;;;3.45;3.15;;;;;;;20.54;61.73;64123.03;5066564;28;20201;-78
2023/06/07 07:01:20;;;;;;;3.47;3.17;;;;;;;21.13;61.39;64184.13;5068095;28;20240;-78
2023/06/07 07:03:48;;;;;;;3.72;2.90;;;;;;;21.56;57.03;64233.69;5066053;28;20196;-78
2023/06/07 07:06:16;;;;;;;2.80;2.70;;;;;;;21.68;58.60;64246.75;5084942;28;20275;-80
2023/06/07 07:08:44;;;;;;;3.58;2.72;;;;;;;21.39;59.73;64216.47;5085696;28;20211;-78
2023/06/07 07:11:11;;;;;;;2.60;2.42;;;;;;;21.80;58.85;64256.19;5086024;28;20200;-78
2023/06/07 07:13:39;;;;;;;3.97;2.92;;;;;;;22.25;57.26;64302.69;5078989;28;20196;-77
2023/06/07 07:16:06;;;;;;;9.98;3.20;;;;;;;21.87;56.08;64263.00;5092414;28;20554;-79
2023/06/07 07:18:32;;;;;;;5.82;3.17;;;;;;;22.20;54.64;64300.59;5079020;28;20207;-76
2023/06/07 07:20:59;;;;;;;3.25;2.50;;;;;;;22.33;55.08;64316.78;5074740;28;20227;-77
2023/06/07 07:23:27;;;;;;;3.40;2.83;;;;;;;22.09;57.14;64286.00;5085154;28;20204;-78
2023/06/07 07:25:55;;;;;;;2.97;2.80;;;;;;;22.09;56.49;64281.31;5085968;28;20271;-79
2023/06/07 07:28:22;;;;;;;9.38;2.65;;;;;;;21.60;56.66;64235.28;5072328;28;20421;-78
2023/06/07 07:30:49;;;;;;;5.93;3.10;;;;;;;21.59;59.81;64237.34;5066900;28;20421;-81
2023/06/07 07:33:16;;;;;;;7.18;3.05;;;;;;;21.79;57.76;64255.16;5069380;28;20280;-79
2023/06/07 07:35:43;;;;;;;5.05;2.67;;;;;;;22.01;58.42;64278.16;5065468;28;20205;-79
2023/06/07 07:38:10;;;;;;;3.78;2.90;;;;;;;22.55;57.61;64337.22;5067313;28;20292;-78
2023/06/07 07:40:38;;;;;;;3.85;2.75;;;;;;;22.63;55.01;64337.78;5066963;28;20236;-78
2023/06/07 07:43:06;;;;;;;3.42;3.13;;;;;;;22.38;55.49;64316.81;5083831;28;20227;-76
2023/06/07 07:45:33;;;;;;;5.28;2.72;;;;;;;22.46;56.67;64324.66;5085823;28;20203;-78
2023/06/07 07:48:00;;;;;;;3.40;3.10;;;;;;;22.50;55.42;64337.16;5085842;28;20242;-79
2023/06/07 07:50:27;;;;;;;4.70;3.22;;;;;;;22.89;56.56;64372.75;5084179;28;20235;-77
2023/06/07 07:52:56;;;;;;;4.05;2.38;;;;;;;22.99;54.87;64377.00;5086004;28;20211;-78
2023/06/07 07:55:23;;;;;;;4.72;3.28;;;;;;;23.24;54.82;64403.66;5085008;28;20199;-78
2023/06/07 07:57:51;;;;;;;6.55;2.90;;;;;;;23.21;55.28;64400.00;5087105;28;20659;-78
2023/06/07 08:00:20;;;;;;;3.13;2.85;;;;;;;23.42;53.20;64427.16;5087436;28;20605;-78
2023/06/07 08:02:48;;;;;;;3.05;2.70;;;;;;;23.39;53.66;64426.63;5085713;28;20343;-78
2023/06/07 08:05:15;;;;;;;6.68;3.05;;;;;;;23.57;51.66;64440.78;5084734;28;20200;-75
2023/06/07 08:07:42;;;;;;;4.63;2.97;;;;;;;23.15;54.71;64399.44;5070132;28;20227;-76
2023/06/07 08:10:11;;;;;;;2.88;2.67;;;;;;;22.97;53.72;64380.59;5066319;28;20211;-77
2023/06/07 08:12:38;;;;;;;4.53;2.97;;;;;;;23.53;52.10;64436.59;5068979;28;20274;-79
2023/06/07 08:15:06;;;;;;;2.80;2.60;;;;;;;23.56;54.62;64441.81;5085383;28;20523;-79
2023/06/07 08:17:35;;;;;;;5.65;3.67;;;;;;;23.80;55.68;64464.31;5066874;28;20395;-79
2023/06/07 08:20:04;;;;;;;3.33;2.75;;;;;;;23.86;54.20;64471.13;5070504;28;20285;-77
2023/06/07 08:22:31;;;;;;;4.03;3.08;;;;;;;23.82;52.61;64469.56;5084068;28;20227;-77
2023/06/07 08:24:58;;;;;;;3.25;3.03;;;;;;;22.96;55.49;64373.84;5086281;28;20192;-78
2023/06/07 08:27:25;;;;;;;6.28;3.00;;;;;;;23.03;56.23;64383.75;5086703;28;20215;-77
2023/06/07 08:29:52;;;;;;;4.93;3.65;;;;;;;23.00;57.55;64378.56;5080408;28;20357;-78
2023/06/07 08:32:21;;;;;;;4.53;3.28;;;;;;;22.91;54.69;64374.34;5081530;28;20216;-77
2023/06/07 08:34:50;;;;;;;4.93;2.97;;;;;;;22.93;56.89;64376.94;5087160;28;20200;-75
2023/06/07 08:37:17;;;;;;;4.57;3.03;;;;;;;22.75;54.58;64358.13;5081350;28;20547;-77
2023/06/07 08:39:44;;;;;;;6.80;3.28;;;;;;;23.10;55.26;64391.06;5081947;28;20224;-75
2023/06/07 08:42:11;;;;;;;4.22;2.72;;;;;;;23.28;53.74;64410.44;5082324;28;20254;-76
2023/06/07 08:44:40;;;;;;;5.43;2.53;;;;;;;22.95;55.13;64372.78;5084436;28;20232;-75
2023/06/07 08:47:10;;;;;;;3.22;2.92;;;;;;;23.17;56.26;64401.53;5083873;28;20281;-75
2023/06/07 08:49:40;;;;;;;4.05;3.15;;;;;;;23.46;55.67;64434.47;5082439;28;20231;-74
2023/06/07 08:52:10;;;;;;;3.10;2.70;;;;;;;23.72;52.36;64455.97;5085422;28;20290;-76
2023/06/07 08:54:42;;;;;;;3.28;2.97;;;;;;;23.81;53.26;64465.38;5076948;28;20200;-74
2023/06/07 08:57:10;;;;;;;9.70;3.88;;;;;;;23.79;50.29;64463.81;5087353;28;20216;-76
2023/06/07 08:59:37;;;;;;;3.15;2.95;;;;;;;23.64;50.88;64448.09;5084712;28;20208;-74
2023/06/07 09:02:05;;;;;;;5.32;3.25;;;;;;;23.29;54.28;64414.09;5084142;28;20273;-76
2023/06/07 09:04:34;;;;;;;4.90;3.00;;;;;;;23.63;52.51;64447.06;5080601;28;20212;-76
2023/06/07 09:07:03;;;;;;;4.50;3.60;;;;;;;23.93;50.64;64475.88;5081354;28;20246;-75
2023/06/07 09:09:32;;;;;;;3.42;3.10;;;;;;;24.22;50.27;64505.19;5072721;28;20201;-74
2023/06/07 09:11:59;;;;;;;3.53;3.33;;;;;;;24.05;49.85;64490.00;5083720;28;20220;-75
2023/06/07 09:14:28;;;;;;;5.55;2.78;;;;;;;24.37;50.99;64523.47;5075373;28;20204;-75
2023/06/07 09:16:56;;;;;;;3.00;2.80;;;;;;;24.87;49.60;64575.84;5087674;28;20598;-74
2023/06/07 09:19:37;;;;;;;8.18;3.30;;;;;;;25.00;50.03;64597.31;5082543;28;20373;-75
2023/06/07 09:22:06;;;;;;;5.63;3.25;;;;;;;24.36;51.99;64520.38;5081875;28;20261;-77
2023/06/07 09:24:35;;;;;;;2.97;2.78;;;;;;;24.87;50.08;64575.84;5079993;28;20193;-76
2023/06/07 09:27:04;;;;;;;3.13;2.92;;;;;;;24.92;48.74;64575.88;5080681;28;20216;-74
2023/06/07 09:29:40;;;;;;;6.82;4.20;;;;;;;23.92;48.98;64480.00;5086358;28;20198;-75
2023/06/07 09:32:20;;;;;;;5.10;3.50;;;;;;;24.23;51.24;64516.66;5082093;28;20246;-76
2023/06/07 09:34:47;;;;;;;3.50;3.30;;;;;;;24.60;51.80;64545.50;5082375;28;20572;-76
2023/06/07 09:37:17;;;;;;;4.90;3.40;;;;;;;25.23;51.27;64616.16;5080180;28;20218;-77
2023/06/07 09:39:46;;;;;;;3.30;3.10;;;;;;;25.43;46.53;64634.03;5083471;28;20430;-75
2023/06/07 09:42:16;;;;;;;6.65;3.28;;;;;;;25.20;47.74;64613.03;5082723;28;20239;-74
2023/06/07 09:44:44;;;;;;;3.08;2.67;;;;;;;25.48;47.02;64642.41;5086072;28;20275;-75
2023/06/07 09:47:21;;;;;;;3.60;3.17;;;;;;;25.95;47.73;64691.13;5082214;28;20216;-75
2023/06/07 09:49:48;;;;;;;3.45;3.15;;;;;;;25.94;47.93;64690.59;5082495;28;20218;-75
2023/06/07 09:52:16;;;;;;;4.03;3.53;;;;;;;25.86;49.69;64679.63;5085762;28;20282;-75
2023/06/07 09:54:45;;;;;;;3.60;3.15;;;;;;;25.96;47.39;64689.56;5085765;28;20234;-76
2023/06/07 09:57:28;;;;;;;4.22;3.13;;;;;;;25.97;47.32;64690.63;5084882;28;20220;-74
2023/06/07 09:59:58;;;;;;;4.32;2.88;;;;;;;26.00;47.59;64694.28;5087243;28;20203;-74
2023/06/07 10:02:26;;;;;;;4.45;3.30;;;;;;;26.35;47.01;64727.88;5085650;28;20224;-76
2023/06/07 10:04:55;;;;;;;4.25;3.20;;;;;;;26.43;46.55;64738.31;5077782;28;20238;-76
2023/06/07 10:07:23;;;;;;;3.35;2.70;;;;;;;26.61;47.81;64757.72;5086340;28;20232;-75
2023/06/07 10:09:54;;;;;;;6.20;3.55;;;;;;;26.70;46.78;64764.56;5085740;28;20203;-74
2023/06/07 10:12:23;;;;;;;3.22;2.65;;;;;;;26.96;47.21;64794.47;5084422;28;20220;-75
2023/06/07 10:14:54;;;;;;;3.50;3.05;;;;;;;26.91;47.00;64788.69;5087852;28;20200;-75
2023/06/07 10:17:23;;;;;;;3.05;2.85;;;;;;;26.75;45.84;64766.69;5083273;28;20215;-75
2023/06/07 10:19:57;;;;;;;3.35;3.03;;;;;;;26.75;46.35;64771.91;5078369;28;20200;-76
2023/06/07 10:22:27;;;;;;;2.92;2.72;;;;;;;26.97;45.93;64795.50;5082723;28;20232;-76
2023/06/07 10:25:03;;;;;;;3.65;2.80;;;;;;;27.45;44.87;64845.38;5074787;28;20404;-75
2023/06/07 10:27:35;;;;;;;2.85;2.47;;;;;;;27.52;44.79;64857.41;5084660;28;20234;-76
2023/06/07 10:30:10;;;;;;;5.63;2.65;;;;;;;27.66;44.91;64872.09;5079775;28;20426;-76
2023/06/07 10:32:38;;;;;;;3.65;3.25;;;;;;;27.62;44.22;64863.19;5086351;28;20312;-75
2023/06/07 10:35:09;;;;;;;3.50;2.78;;;;;;;27.42;45.72;64844.84;5082495;28;20196;-77
2023/06/07 10:37:37;;;;;;;4.93;3.20;;;;;;;27.93;44.18;64893.13;5081999;28;20231;-76
2023/06/07 10:40:11;;;;;;;4.55;2.60;;;;;;;28.44;40.63;64951.91;5083329;28;20200;-76
2023/06/07 10:42:39;;;;;;;3.25;2.85;;;;;;;27.91;43.21;64893.13;5084102;28;20287;-75
2023/06/07 10:45:07;;;;;;;6.00;2.97;;;;;;;27.85;42.46;64889.44;5084982;28;20223;-77
2023/06/07 10:47:34;;;;;;;2.53;2.33;;;;;;;27.51;43.76;64848.53;5086980;28;20274;-76
2023/06/07 10:50:01;;;;;;;3.00;2.80;;;;;;;27.74;45.12;64877.88;5084638;28;20208;-75
2023/06/07 10:52:28;;;;;;;3.38;2.90;;;;;;;27.34;43.19;64831.19;5084187;28;20220;-75
2023/06/07 10:54:55;;;;;;;3.42;3.13;;;;;;;26.88;43.89;64785.53;5084460;28;20241;-74
2023/06/07 10:57:37;;;;;;;2.92;2.72;;;;;;;27.23;45.24;64819.66;5084635;28;20238;-76
2023/06/07 11:00:28;;;;;;;4.70;3.30;;;;;;;27.39;44.97;64839.06;5084981;28;20469;-76
2023/06/07 11:03:31;;;;;;;3.58;3.22;;;;;;;27.26;44.46;64825.41;5078912;28;20254;-75
2023/06/07 11:06:09;;;;;;;3.63;3.42;;;;;;;26.52;44.34;64750.38;5061515;28;20520;-77
2023/06/07 11:08:37;;;;;;;2.83;2.65;;;;;;;26.65;45.14;64766.63;5085277;28;20219;-75
2023/06/07 11:11:25;;;;;;;4.60;3.45;;;;;;;27.22;44.56;64824.34;5084042;28;20200;-77
2023/06/07 11:14:13;;;;;;;2.72;2.53;;;;;;;27.29;44.87;64829.09;5084793;28;20493;-76
2023/06/07 11:16:41;;;;;;;2.72;2.53;;;;;;;27.29;43.28;64831.72;5084801;28;20212;-76
2023/06/07 11:19:12;;;;;;;4.45;3.03;;;;;;;27.02;45.25;64800.75;5078720;28;20536;-78
2023/06/07 11:22:04;;;;;;;4.07;2.75;;;;;;;27.87;45.02;64888.91;5076033;28;20306;-75
2023/06/07 11:24:33;;;;;;;3.20;3.00;;;;;;;27.67;44.68;64870.53;5064555;28;20247;-76
2023/06/07 11:27:00;;;;;;;4.25;3.30;;;;;;;27.90;44.17;64895.22;5071836;28;20235;-76
2023/06/07 11:29:31;;;;;;;2.75;2.53;;;;;;;27.78;43.77;64876.84;5080583;28;20260;-75
2023/06/07 11:32:00;;;;;;;5.10;2.42;;;;;;;27.68;44.46;64868.97;5076406;28;20216;-75
2023/06/07 11:34:29;;;;;;;3.80;2.90;;;;;;;27.80;43.13;64884.69;5077205;28;20202;-75
2023/06/07 11:37:13;;;;;;;3.28;3.08;;;;;;;27.76;43.22;64880.50;5082572;28;20306;-75
2023/06/07 11:39:40;;;;;;;2.92;2.72;;;;;;;27.46;41.15;64845.91;5081097;28;20389;-75
2023/06/07 11:42:08;;;;;;;3.25;3.00;;;;;;;27.87;41.67;64892.03;5082713;28;20275;-76